Time;durP1;ratioP1;P1;durP2;ratioP2;P2;SDS_P1;SDS_P2;PMS_P1;PMS_P2;Temp;Humidity;BMP_temperature;BMP_pressure;BME280_temperature;BME280_humidity;BME280_pressure;Samples;Min_cycle;Max_cycle;Signal;HPM_P1;HPM_P2
2023/03/07 00:00:37;;;;;;;3.97;1.90;;;;;;;-1.48;67.05;146963.81;5154090;27;20315;-66
2023/03/07 00:03:03;;;;;;;3.65;1.98;;;;;;;-1.64;67.53;146923.16;5147607;27;20018;-64
2023/03/07 00:05:30;;;;;;;3.50;1.80;;;;;;;-1.54;67.36;146947.28;5138589;27;20026;-64
2023/03/07 00:07:57;;;;;;;2.72;2.00;;;;;;;-1.64;68.14;146924.47;5151430;27;20027;-66
2023/03/07 00:10:22;;;;;;;2.05;1.67;;;;;;;-1.63;67.54;146926.97;5158515;27;20030;-65
2023/03/07 00:12:48;;;;;;;2.88;1.75;;;;;;;-1.52;68.75;146952.38;5154015;27;20126;-65
2023/03/07 00:15:14;;;;;;;3.30;1.80;;;;;;;-1.57;68.52;146942.22;5143371;27;20030;-65
2023/03/07 00:17:39;;;;;;;4.75;2.00;;;;;;;-1.67;68.19;146916.81;5143092;27;20257;-65
2023/03/07 00:20:06;;;;;;;2.97;1.77;;;;;;;-1.63;67.00;146926.97;5152445;27;20027;-65
2023/03/07 00:22:33;;;;;;;3.60;1.73;;;;;;;-1.71;67.42;146905.38;5143701;27;20027;-65
2023/03/07 00:24:59;;;;;;;3.40;1.92;;;;;;;-1.57;68.29;146942.22;5152165;27;20054;-66
2023/03/07 00:27:24;;;;;;;2.50;1.90;;;;;;;-1.62;67.88;146928.25;5142846;28;20023;-64
2023/03/07 00:29:50;;;;;;;2.30;1.98;;;;;;;-1.58;67.07;146939.66;5126393;27;20054;-63
2023/03/07 00:32:16;;;;;;;2.17;1.65;;;;;;;-1.71;67.97;146906.69;5147600;27;20027;-64
2023/03/07 00:34:41;;;;;;;2.92;1.83;;;;;;;-1.67;67.23;146916.81;5144097;27;20094;-64
2023/03/07 00:37:07;;;;;;;3.75;2.10;;;;;;;-1.71;67.94;146906.69;5143471;27;20090;-64
2023/03/07 00:39:32;;;;;;;4.07;2.28;;;;;;;-1.71;67.06;146905.38;5143891;27;20027;-64
2023/03/07 00:41:58;;;;;;;2.75;1.98;;;;;;;-1.73;68.97;146901.59;5145994;27;20187;-64
2023/03/07 00:44:25;;;;;;;3.38;1.77;;;;;;;-1.78;68.88;146890.16;5132417;28;20046;-64
2023/03/07 00:46:52;;;;;;;3.10;2.10;;;;;;;-1.91;68.08;146858.44;5145746;27;20098;-65
2023/03/07 00:49:19;;;;;;;2.63;1.73;;;;;;;-1.85;68.26;146872.41;5121520;28;20058;-64
2023/03/07 00:51:45;;;;;;;3.00;1.52;;;;;;;-1.99;68.29;146838.13;5132340;28;20071;-64
2023/03/07 00:54:10;;;;;;;2.75;1.88;;;;;;;-1.99;68.81;146836.88;5128917;27;20094;-65
2023/03/07 00:56:36;;;;;;;2.20;1.80;;;;;;;-1.97;69.63;146841.94;5149168;27;20023;-65
2023/03/07 00:59:02;;;;;;;2.63;2.00;;;;;;;-1.95;69.47;146847.03;5142858;27;20031;-64
2023/03/07 01:01:27;;;;;;;3.53;2.00;;;;;;;-1.87;69.97;146867.28;5150675;27;20019;-64
2023/03/07 01:03:53;;;;;;;4.25;1.90;;;;;;;-2.01;70.32;146831.78;5149780;27;20185;-64
2023/03/07 01:06:22;;;;;;;2.70;2.00;;;;;;;-2.13;70.55;146803.84;5146337;27;20015;-64
2023/03/07 01:08:48;;;;;;;2.65;1.70;;;;;;;-1.93;69.79;146853.34;5146335;27;20087;-65
2023/03/07 01:11:14;;;;;;;2.47;1.58;;;;;;;-2.04;69.63;146824.16;5144022;27;20027;-65
2023/03/07 01:13:40;;;;;;;1.98;1.73;;;;;;;-1.99;70.72;146838.13;5158392;27;20031;-65
2023/03/07 01:16:07;;;;;;;2.10;1.90;;;;;;;-1.84;70.47;146874.94;5131562;27;20042;-64
2023/03/07 01:18:32;;;;;;;2.25;1.80;;;;;;;-1.99;70.36;146836.88;5153302;27;20067;-65
2023/03/07 01:20:58;;;;;;;4.88;1.95;;;;;;;-1.91;70.75;146858.44;5153105;27;20050;-67
2023/03/07 01:23:24;;;;;;;2.80;1.65;;;;;;;-2.03;70.54;146827.97;5147798;27;20034;-64
2023/03/07 01:25:49;;;;;;;2.78;1.70;;;;;;;-2.02;70.42;146830.50;5158462;27;20039;-65
2023/03/07 01:28:15;;;;;;;2.55;1.88;;;;;;;-1.91;69.81;146858.44;5127390;27;20058;-66
2023/03/07 01:30:41;;;;;;;2.08;1.70;;;;;;;-1.89;70.89;146861.00;5151356;27;20067;-64
2023/03/07 01:33:08;;;;;;;1.70;1.60;;;;;;;-1.99;70.12;146836.88;5149924;27;20063;-64
2023/03/07 01:35:38;;;;;;;2.40;1.60;;;;;;;-2.03;70.42;146826.72;5128036;27;20228;-64
2023/03/07 01:38:04;;;;;;;1.92;1.77;;;;;;;-1.97;70.96;146843.19;5164299;27;20037;-63
2023/03/07 01:40:30;;;;;;;2.33;2.13;;;;;;;-1.96;71.04;146845.72;5152234;27;20126;-64
2023/03/07 01:43:22;;;;;;;5.45;2.35;;;;;;;-1.86;71.62;146868.59;5151246;27;20234;-65
2023/03/07 01:45:48;;;;;;;2.65;1.80;;;;;;;-1.92;71.43;146854.63;5138446;27;20091;-65
2023/03/07 01:48:13;;;;;;;3.75;2.00;;;;;;;-2.02;72.09;146830.50;5145961;27;20039;-65
2023/03/07 01:50:40;;;;;;;5.43;2.17;;;;;;;-2.09;72.47;146812.75;5146421;27;20090;-65
2023/03/07 01:53:07;;;;;;;2.28;1.70;;;;;;;-2.05;71.85;146821.59;5151094;27;20034;-66
2023/03/07 01:55:34;;;;;;;2.58;1.83;;;;;;;-2.11;71.82;146808.94;5158672;27;20050;-65
2023/03/07 01:58:05;;;;;;;4.03;2.17;;;;;;;-2.18;71.96;146789.88;5150739;27;20029;-65
2023/03/07 02:00:31;;;;;;;4.18;2.33;;;;;;;-2.17;72.80;146792.44;5152318;27;20035;-64
2023/03/07 02:03:10;;;;;;;3.50;1.85;;;;;;;-2.14;71.99;146800.03;5154809;27;20133;-65
2023/03/07 02:05:48;;;;;;;4.90;2.17;;;;;;;-2.25;72.26;146773.44;5147190;27;20035;-65
2023/03/07 02:08:16;;;;;;;3.30;2.15;;;;;;;-2.06;71.96;146819.09;5127185;27;20027;-65
2023/03/07 02:10:42;;;;;;;2.42;2.10;;;;;;;-2.09;72.23;146812.75;5151117;27;20343;-65
2023/03/07 02:13:08;;;;;;;2.60;2.00;;;;;;;-2.15;72.03;146798.78;5157263;27;20030;-66
2023/03/07 02:15:35;;;;;;;3.97;2.10;;;;;;;-2.11;72.48;146808.94;5154404;27;20034;-64
2023/03/07 02:18:01;;;;;;;5.65;2.42;;;;;;;-2.12;73.39;146805.16;5146654;27;20024;-67
2023/03/07 02:20:50;;;;;;;2.58;1.90;;;;;;;-2.19;72.86;146788.63;5158292;27;20027;-66
2023/03/07 02:23:46;;;;;;;3.28;2.28;;;;;;;-2.05;73.02;146821.59;5122014;27;20026;-67
2023/03/07 02:26:27;;;;;;;6.15;2.50;;;;;;;-2.00;74.06;146835.56;5160021;27;20229;-65
2023/03/07 02:28:53;;;;;;;3.97;2.38;;;;;;;-2.15;73.35;146798.78;5126743;27;20038;-66
2023/03/07 02:31:19;;;;;;;3.83;2.25;;;;;;;-2.09;73.49;146814.00;5131384;27;20039;-65
2023/03/07 02:33:45;;;;;;;4.53;2.63;;;;;;;-2.07;73.45;146817.81;5151262;27;20034;-66
2023/03/07 02:36:14;;;;;;;3.70;2.63;;;;;;;-2.26;73.75;146772.13;5148986;27;20234;-65
2023/03/07 02:38:43;;;;;;;2.92;2.30;;;;;;;-2.12;73.31;146805.16;5156317;27;20030;-65
2023/03/07 02:41:10;;;;;;;5.72;2.42;;;;;;;-2.20;73.13;146784.81;5133230;27;20024;-65
2023/03/07 02:43:36;;;;;;;4.60;2.45;;;;;;;-2.22;72.50;146779.72;5155780;27;20360;-65
2023/03/07 02:46:02;;;;;;;3.67;2.40;;;;;;;-2.29;72.80;146764.53;5123593;27;20019;-65
2023/03/07 02:48:27;;;;;;;5.38;2.78;;;;;;;-2.28;74.36;146767.06;5137315;27;20032;-65
2023/03/07 02:50:53;;;;;;;5.18;2.53;;;;;;;-2.21;74.47;146782.28;5125196;27;20073;-65
2023/03/07 02:53:18;;;;;;;6.85;2.90;;;;;;;-2.17;74.56;146793.69;5159004;27;20026;-65
2023/03/07 02:55:44;;;;;;;4.45;2.42;;;;;;;-2.14;74.16;146800.03;5148901;27;20031;-65
2023/03/07 02:58:10;;;;;;;3.55;2.45;;;;;;;-2.09;72.60;146812.75;5152329;27;20034;-66
2023/03/07 03:00:36;;;;;;;5.32;2.38;;;;;;;-1.98;73.23;146839.38;5150990;27;20022;-66
2023/03/07 03:03:02;;;;;;;4.13;2.30;;;;;;;-2.08;72.82;146815.31;5137875;27;20061;-65
2023/03/07 03:05:27;;;;;;;3.90;2.30;;;;;;;-1.96;73.23;146845.72;5163908;27;20030;-65
2023/03/07 03:07:53;;;;;;;3.80;2.60;;;;;;;-1.92;73.16;146854.63;5143787;27;20038;-64
2023/03/07 03:10:19;;;;;;;5.70;2.65;;;;;;;-2.19;72.13;146788.63;5148215;27;20027;-65
2023/03/07 03:12:44;;;;;;;4.82;2.75;;;;;;;-2.19;73.10;146787.38;5131340;27;20027;-65
2023/03/07 03:15:11;;;;;;;5.28;2.90;;;;;;;-2.21;72.75;146782.28;5153107;27;20045;-65
2023/03/07 03:17:36;;;;;;;3.92;2.63;;;;;;;-2.06;72.79;146819.09;5144184;27;20035;-66
2023/03/07 03:20:10;;;;;;;3.15;2.70;;;;;;;-2.03;73.09;146826.72;5144160;27;20169;-65
2023/03/07 03:22:37;;;;;;;4.32;2.80;;;;;;;-2.06;72.33;146819.09;5152429;27;20200;-66
2023/03/07 03:25:05;;;;;;;4.55;2.97;;;;;;;-2.29;72.83;146764.53;5126044;27;20039;-65
2023/03/07 03:27:31;;;;;;;4.65;2.83;;;;;;;-2.44;74.17;146726.44;5148827;27;20027;-64
2023/03/07 03:29:57;;;;;;;5.82;2.72;;;;;;;-2.32;74.18;146756.91;5147450;27;20371;-64
2023/03/07 03:32:23;;;;;;;7.20;2.80;;;;;;;-2.35;73.28;146748.00;5144035;27;20042;-65
2023/03/07 03:34:48;;;;;;;4.78;3.00;;;;;;;-2.28;73.34;146767.06;5153587;27;20035;-65
2023/03/07 03:37:14;;;;;;;4.95;2.90;;;;;;;-2.23;74.01;146778.47;5144526;27;20090;-64
2023/03/07 03:39:40;;;;;;;3.92;2.92;;;;;;;-2.17;74.21;146793.69;5150138;27;20030;-64
2023/03/07 03:42:05;;;;;;;5.63;3.00;;;;;;;-2.24;74.19;146774.69;5147997;27;20033;-65
2023/03/07 03:44:31;;;;;;;5.07;3.13;;;;;;;-2.30;72.93;146761.97;5125824;27;20029;-66
2023/03/07 03:46:56;;;;;;;5.65;2.38;;;;;;;-2.41;74.43;146734.06;5153508;27;20034;-66
2023/03/07 03:49:22;;;;;;;6.30;3.17;;;;;;;-2.38;73.26;146741.72;5154520;27;20303;-65
2023/03/07 03:51:48;;;;;;;4.95;2.80;;;;;;;-2.41;73.94;146734.06;5149589;27;20090;-66
2023/03/07 03:54:13;;;;;;;5.30;2.90;;;;;;;-2.20;73.78;146786.09;5126832;27;20038;-65
2023/03/07 03:56:39;;;;;;;4.47;2.72;;;;;;;-2.20;73.85;146784.81;5144116;27;20068;-66
2023/03/07 03:59:05;;;;;;;6.57;2.90;;;;;;;-2.29;73.66;146764.53;5153812;27;20059;-67
2023/03/07 04:01:30;;;;;;;4.20;2.80;;;;;;;-2.38;73.72;146741.72;5145244;27;20026;-64
2023/03/07 04:03:57;;;;;;;4.70;3.20;;;;;;;-2.45;74.52;146725.19;5152622;27;20027;-65
2023/03/07 04:06:31;;;;;;;5.00;3.08;;;;;;;-2.25;73.54;146773.44;5129231;27;20203;-65
2023/03/07 04:08:58;;;;;;;4.82;2.70;;;;;;;-2.21;73.24;146783.53;5143446;27;20259;-66
2023/03/07 04:11:24;;;;;;;10.63;3.20;;;;;;;-2.46;73.39;146722.66;5154331;27;20184;-65
2023/03/07 04:13:50;;;;;;;4.30;2.85;;;;;;;-2.36;73.96;146746.75;5145447;27;20065;-65
2023/03/07 04:16:18;;;;;;;5.85;3.35;;;;;;;-2.25;73.59;146773.44;5154124;27;20030;-64
2023/03/07 04:18:43;;;;;;;5.78;3.30;;;;;;;-2.45;73.88;146723.94;5146153;27;20031;-63
2023/03/07 04:21:12;;;;;;;7.15;3.80;;;;;;;-2.43;74.15;146730.25;5145311;27;20019;-64
2023/03/07 04:23:38;;;;;;;6.80;3.83;;;;;;;-2.49;73.00;146713.78;5151628;27;20070;-65
2023/03/07 04:26:06;;;;;;;4.35;2.95;;;;;;;-2.43;73.05;146730.25;5143684;27;20042;-66
2023/03/07 04:28:48;;;;;;;5.00;3.00;;;;;;;-2.46;73.62;146722.66;5154599;27;20045;-64
2023/03/07 04:31:16;;;;;;;5.45;3.28;;;;;;;-2.50;73.06;146711.25;5145855;27;20034;-65
2023/03/07 04:33:42;;;;;;;3.22;2.65;;;;;;;-2.27;73.55;146769.63;5149757;27;20034;-65
2023/03/07 04:36:09;;;;;;;5.25;3.10;;;;;;;-2.24;72.75;146774.69;5153135;27;20018;-65
2023/03/07 04:38:37;;;;;;;5.55;3.38;;;;;;;-2.38;73.55;146740.41;5149343;27;20034;-65
2023/03/07 04:41:02;;;;;;;6.30;3.97;;;;;;;-2.32;73.93;146756.91;5160205;27;20023;-66
2023/03/07 04:43:28;;;;;;;5.72;3.40;;;;;;;-2.32;72.68;146756.91;5141846;27;20020;-66
2023/03/07 04:45:54;;;;;;;5.38;3.28;;;;;;;-2.28;73.08;146765.78;5147366;27;20034;-68
2023/03/07 04:48:20;;;;;;;5.47;3.50;;;;;;;-2.34;73.01;146751.81;5151425;27;20027;-67
2023/03/07 04:50:49;;;;;;;7.05;3.75;;;;;;;-2.33;73.66;146754.38;5146915;27;20034;-66
2023/03/07 04:53:16;;;;;;;6.38;3.35;;;;;;;-2.20;72.63;146786.09;5160035;27;20023;-67
2023/03/07 04:55:41;;;;;;;7.18;3.17;;;;;;;-2.20;72.05;146784.81;5151312;27;20030;-66
2023/03/07 04:58:11;;;;;;;5.07;3.47;;;;;;;-2.23;73.44;146777.22;5153587;27;20019;-65
2023/03/07 05:00:44;;;;;;;5.68;3.45;;;;;;;-2.27;72.76;146769.63;5156589;27;20060;-65
2023/03/07 05:03:11;;;;;;;6.80;3.20;;;;;;;-2.26;72.69;146770.88;5151474;27;20019;-66
2023/03/07 05:05:36;;;;;;;7.38;3.72;;;;;;;-2.15;72.97;146798.78;5158842;27;20026;-65
2023/03/07 05:08:03;;;;;;;4.78;3.58;;;;;;;-2.17;72.35;146792.44;5152414;27;20023;-65
2023/03/07 05:10:29;;;;;;;6.90;3.20;;;;;;;-2.22;72.79;146781.03;5141092;27;20019;-66
2023/03/07 05:12:55;;;;;;;6.20;3.45;;;;;;;-2.28;73.31;146767.06;5155571;27;20034;-65
2023/03/07 05:15:21;;;;;;;5.25;3.45;;;;;;;-2.26;71.73;146770.88;5143049;27;20066;-66
2023/03/07 05:17:46;;;;;;;6.65;3.78;;;;;;;-2.27;71.64;146769.63;5157729;27;20074;-64
2023/03/07 05:20:12;;;;;;;4.90;3.47;;;;;;;-2.23;72.43;146778.47;5151912;27;20096;-66
2023/03/07 05:22:38;;;;;;;4.95;3.30;;;;;;;-2.16;72.05;146796.25;5160966;27;20035;-65
2023/03/07 05:25:04;;;;;;;5.18;3.35;;;;;;;-2.17;71.56;146793.69;5147244;27;20050;-65
2023/03/07 05:27:30;;;;;;;6.85;4.00;;;;;;;-2.16;71.83;146796.25;5147602;27;20101;-65
2023/03/07 05:29:55;;;;;;;6.88;4.03;;;;;;;-2.14;71.65;146800.03;5150282;27;20141;-66
2023/03/07 05:32:21;;;;;;;6.65;3.70;;;;;;;-2.05;72.47;146822.91;5145272;27;20027;-66
2023/03/07 05:34:47;;;;;;;8.10;3.90;;;;;;;-2.10;71.78;146811.44;5142894;27;20019;-65
2023/03/07 05:37:13;;;;;;;5.53;3.72;;;;;;;-2.02;72.60;146829.22;5146307;27;20015;-64
2023/03/07 05:39:38;;;;;;;6.45;3.63;;;;;;;-2.08;70.96;146816.56;5147838;27;20048;-65
2023/03/07 05:42:04;;;;;;;5.82;3.53;;;;;;;-2.35;71.91;146748.00;5156874;27;20027;-65
2023/03/07 05:44:30;;;;;;;8.15;3.55;;;;;;;-2.30;71.44;146760.72;5142309;27;20039;-65
2023/03/07 05:46:55;;;;;;;6.45;3.95;;;;;;;-2.13;71.78;146803.84;5148041;27;20031;-65
2023/03/07 05:49:21;;;;;;;5.65;3.90;;;;;;;-2.01;71.62;146833.06;5146018;27;20027;-66
2023/03/07 05:51:47;;;;;;;5.53;3.90;;;;;;;-1.90;72.00;146859.69;5146695;27;20296;-66
2023/03/07 05:54:12;;;;;;;5.35;3.90;;;;;;;-1.93;71.57;146852.09;5146859;27;20027;-66
2023/03/07 05:56:38;;;;;;;10.48;4.47;;;;;;;-1.76;71.69;146895.22;5136153;27;20039;-64
2023/03/07 05:59:06;;;;;;;6.63;3.85;;;;;;;-1.84;71.55;146873.66;5146324;27;20031;-65
2023/03/07 06:01:32;;;;;;;5.20;4.20;;;;;;;-1.78;71.17;146888.88;5153744;27;20022;-67
2023/03/07 06:03:58;;;;;;;8.70;4.22;;;;;;;-1.77;70.70;146891.41;5152786;27;20030;-65
2023/03/07 06:06:24;;;;;;;5.88;4.00;;;;;;;-1.66;70.01;146919.34;5156871;27;20023;-65
2023/03/07 06:08:50;;;;;;;6.22;4.57;;;;;;;-1.59;70.14;146937.13;5151060;27;20346;-66
2023/03/07 06:11:15;;;;;;;8.88;3.92;;;;;;;-1.64;69.96;146923.16;5143729;27;20174;-66
2023/03/07 06:13:41;;;;;;;8.10;4.57;;;;;;;-1.51;69.67;146954.91;5152734;27;20019;-65
2023/03/07 06:16:06;;;;;;;7.43;4.10;;;;;;;-1.42;70.61;146979.03;5154629;27;20049;-65
2023/03/07 06:18:32;;;;;;;7.22;4.65;;;;;;;-1.44;69.77;146972.66;5157498;27;20274;-65
2023/03/07 06:20:59;;;;;;;5.93;4.15;;;;;;;-1.26;70.13;147017.13;5166681;27;20129;-66
2023/03/07 06:23:26;;;;;;;7.97;4.68;;;;;;;-1.20;69.31;147032.34;5128038;27;20046;-65
2023/03/07 06:25:51;;;;;;;6.90;4.43;;;;;;;-1.07;69.02;147065.41;5126872;27;20034;-65
2023/03/07 06:28:17;;;;;;;10.68;4.63;;;;;;;-1.32;68.70;147001.91;5127192;27;20049;-65
2023/03/07 06:30:43;;;;;;;9.15;4.40;;;;;;;-1.14;68.85;147046.31;5145215;27;20091;-65
2023/03/07 06:33:08;;;;;;;6.28;4.35;;;;;;;-1.01;68.42;147079.38;5144995;27;20091;-65
2023/03/07 06:35:39;;;;;;;10.02;4.43;;;;;;;-1.18;69.04;147036.16;5126548;27;20212;-65
2023/03/07 06:38:05;;;;;;;6.93;4.80;;;;;;;-0.96;68.49;147090.78;5154591;27;20118;-64
2023/03/07 06:40:30;;;;;;;7.53;5.07;;;;;;;-0.93;69.20;147098.41;5145705;27;20316;-65
2023/03/07 06:42:56;;;;;;;8.32;4.80;;;;;;;-0.87;69.88;147114.94;5152664;27;20102;-65
2023/03/07 06:45:21;;;;;;;8.68;5.10;;;;;;;-0.84;69.31;147120.00;5147891;27;20068;-64
2023/03/07 06:47:47;;;;;;;11.07;5.15;;;;;;;-0.88;69.10;147111.13;5144682;27;20027;-65
2023/03/07 06:50:12;;;;;;;7.25;4.93;;;;;;;-0.91;68.33;147104.78;5145109;27;20124;-65
2023/03/07 06:52:38;;;;;;;8.18;3.97;;;;;;;-0.68;67.31;147159.38;5144550;27;20023;-64
2023/03/07 06:55:04;;;;;;;6.20;4.70;;;;;;;-0.61;67.94;147177.22;5138136;27;20027;-65
2023/03/07 06:57:32;;;;;;;5.07;4.10;;;;;;;-0.85;68.37;147117.50;5159474;27;20027;-66
2023/03/07 06:59:57;;;;;;;7.05;4.38;;;;;;;-0.93;67.89;147099.66;5145619;27;20079;-64
2023/03/07 07:02:23;;;;;;;7.00;4.63;;;;;;;-0.80;68.41;147131.44;5155185;27;20230;-65
2023/03/07 07:04:49;;;;;;;10.43;5.18;;;;;;;-0.68;68.02;147160.69;5146342;27;20023;-66
2023/03/07 07:07:14;;;;;;;7.22;4.38;;;;;;;-0.75;66.82;147144.16;5154413;27;20086;-66
2023/03/07 07:09:40;;;;;;;6.85;4.68;;;;;;;-0.74;67.54;147145.41;5145380;27;20296;-65
2023/03/07 07:12:05;;;;;;;8.40;5.18;;;;;;;-0.53;67.13;147198.81;5126508;27;20216;-66
2023/03/07 07:14:32;;;;;;;6.70;4.63;;;;;;;-0.40;67.82;147229.28;5155498;27;20031;-65
2023/03/07 07:16:58;;;;;;;8.30;4.68;;;;;;;-0.61;66.78;147178.47;5128953;27;20094;-65
2023/03/07 07:19:25;;;;;;;8.30;4.85;;;;;;;-0.62;67.55;147175.91;5155014;27;20041;-66
2023/03/07 07:21:51;;;;;;;9.57;4.80;;;;;;;-0.75;67.13;147144.16;5127942;27;20200;-66
2023/03/07 07:24:16;;;;;;;6.43;4.85;;;;;;;-0.73;69.08;147147.97;5150385;27;20091;-66
2023/03/07 07:26:42;;;;;;;9.15;4.65;;;;;;;-0.65;67.41;147167.03;5144430;27;20230;-65
2023/03/07 07:29:08;;;;;;;9.40;5.40;;;;;;;-0.88;67.42;147112.38;5147432;27;20062;-66
2023/03/07 07:31:33;;;;;;;7.50;5.03;;;;;;;-0.71;66.35;147153.06;5144417;27;20265;-65
2023/03/07 07:33:59;;;;;;;9.38;4.90;;;;;;;-0.53;68.25;147198.81;5126320;27;20022;-65
2023/03/07 07:36:25;;;;;;;7.05;5.07;;;;;;;-0.61;67.11;147178.47;5131250;27;20302;-65
2023/03/07 07:38:50;;;;;;;8.35;5.18;;;;;;;-0.41;67.56;147226.78;5143781;27;20034;-65
2023/03/07 07:41:19;;;;;;;6.72;4.97;;;;;;;-0.34;66.58;147244.56;5141329;27;20090;-65
2023/03/07 07:43:49;;;;;;;8.05;5.45;;;;;;;-0.12;67.20;147297.94;5156168;27;20050;-65
2023/03/07 07:46:15;;;;;;;9.75;5.03;;;;;;;-0.02;67.01;147324.59;5149953;27;20136;-66
2023/03/07 07:48:41;;;;;;;7.20;5.05;;;;;;;0.10;65.69;147352.56;5133821;27;20307;-66
2023/03/07 07:51:06;;;;;;;7.88;4.70;;;;;;;0.15;64.83;147365.31;5141414;27;20116;-66
2023/03/07 07:53:33;;;;;;;10.38;6.20;;;;;;;0.23;65.29;147384.38;5148006;27;20019;-65
2023/03/07 07:55:58;;;;;;;8.40;5.63;;;;;;;0.44;65.42;147437.81;5153000;27;20860;-66
2023/03/07 07:58:24;;;;;;;9.70;5.07;;;;;;;0.06;64.74;147342.41;5148332;27;20088;-65
2023/03/07 08:00:50;;;;;;;8.88;5.40;;;;;;;0.11;64.65;147355.13;5143618;27;20412;-66
2023/03/07 08:03:15;;;;;;;7.75;5.32;;;;;;;0.22;64.52;147381.84;5156157;27;20038;-67
2023/03/07 08:05:47;;;;;;;11.95;5.65;;;;;;;-0.14;65.01;147294.13;5143614;27;20023;-66
2023/03/07 08:08:14;;;;;;;8.38;5.40;;;;;;;-0.09;64.84;147305.56;5153875;27;20023;-64
2023/03/07 08:10:42;;;;;;;11.75;6.03;;;;;;;0.02;65.20;147332.28;5147584;27;20030;-65
2023/03/07 08:13:11;;;;;;;7.45;5.53;;;;;;;-0.09;64.89;147306.81;5147473;27;20023;-65
2023/03/07 08:15:36;;;;;;;7.38;4.90;;;;;;;0.05;65.16;147339.88;5144032;27;20323;-65
2023/03/07 08:18:02;;;;;;;10.60;5.78;;;;;;;0.19;65.39;147374.22;5143018;27;20102;-65
2023/03/07 08:20:28;;;;;;;9.45;5.90;;;;;;;0.31;65.48;147406.03;5156794;27;20064;-65
2023/03/07 08:22:54;;;;;;;11.05;6.03;;;;;;;0.32;64.56;147408.53;5148920;27;20023;-65
2023/03/07 08:25:22;;;;;;;13.27;5.80;;;;;;;0.56;64.05;147465.81;5125154;28;20046;-65
2023/03/07 08:27:53;;;;;;;12.40;5.80;;;;;;;1.12;62.64;147605.72;5144296;27;20030;-65
2023/03/07 08:30:21;;;;;;;9.13;5.78;;;;;;;1.32;60.55;147655.34;5160416;27;20082;-65
2023/03/07 08:32:51;;;;;;;11.00;6.13;;;;;;;2.02;59.48;147827.22;5143773;28;20260;-66
2023/03/07 08:35:17;;;;;;;11.23;6.38;;;;;;;2.32;58.20;147901.13;5149675;27;20307;-65
2023/03/07 08:37:43;;;;;;;11.32;6.50;;;;;;;2.34;57.51;147906.25;5155632;27;20071;-66
2023/03/07 08:40:09;;;;;;;9.50;6.05;;;;;;;2.38;57.29;147916.38;5151309;27;20172;-66
2023/03/07 08:42:35;;;;;;;14.73;6.68;;;;;;;2.37;57.83;147913.88;5145527;27;20102;-66
2023/03/07 08:45:00;;;;;;;10.38;6.80;;;;;;;2.87;58.59;148037.47;5155270;27;20019;-66
2023/03/07 08:47:26;;;;;;;8.68;6.13;;;;;;;3.36;57.65;148159.81;5121788;28;20027;-66
2023/03/07 08:49:52;;;;;;;8.63;6.13;;;;;;;3.23;55.30;148127.94;5122988;27;20249;-66
2023/03/07 08:52:17;;;;;;;9.95;5.75;;;;;;;3.45;53.66;148182.78;5120580;28;20016;-65
2023/03/07 08:54:43;;;;;;;10.10;5.90;;;;;;;3.62;55.29;148223.63;5118612;28;20731;-65
2023/03/07 08:57:09;;;;;;;8.55;6.18;;;;;;;3.86;53.84;148283.50;5132906;28;20044;-67
2023/03/07 08:59:35;;;;;;;11.55;6.75;;;;;;;4.31;54.37;148395.78;5148541;27;20096;-66
2023/03/07 09:02:00;;;;;;;9.77;5.43;;;;;;;4.12;53.35;148347.34;5121767;28;20020;-66
2023/03/07 09:04:26;;;;;;;9.18;5.70;;;;;;;4.46;51.87;148431.50;5152796;27;20023;-66
2023/03/07 09:06:51;;;;;;;8.85;6.13;;;;;;;4.74;53.68;148501.72;5112535;27;20037;-65
2023/03/07 09:09:17;;;;;;;8.23;5.45;;;;;;;4.27;50.26;148385.56;5153314;27;20034;-65
2023/03/07 09:11:43;;;;;;;11.27;5.88;;;;;;;3.47;52.93;148185.34;5150354;27;20027;-66
2023/03/07 09:14:09;;;;;;;11.85;6.10;;;;;;;3.68;52.30;148237.59;5159097;27;20026;-66
2023/03/07 09:16:34;;;;;;;10.73;6.07;;;;;;;4.50;53.50;148441.72;5150267;27;20046;-65
2023/03/07 09:19:00;;;;;;;10.20;6.10;;;;;;;4.31;51.88;148394.53;5141525;28;20031;-66
2023/03/07 09:21:26;;;;;;;8.68;5.22;;;;;;;4.30;52.47;148391.97;5143651;27;20063;-65
2023/03/07 09:23:51;;;;;;;8.25;5.60;;;;;;;4.38;51.28;148411.13;5145426;27;20035;-66
2023/03/07 09:26:17;;;;;;;11.15;6.32;;;;;;;4.99;50.07;148564.28;5144986;27;20228;-67
2023/03/07 09:28:43;;;;;;;8.77;5.80;;;;;;;3.94;50.73;148302.69;5125412;27;20026;-67
2023/03/07 09:31:10;;;;;;;11.35;6.82;;;;;;;4.08;52.49;148337.13;5145699;27;20251;-66
2023/03/07 09:33:36;;;;;;;8.95;6.03;;;;;;;4.17;53.11;148358.81;5126262;27;20509;-66
2023/03/07 09:36:06;;;;;;;9.07;6.22;;;;;;;4.04;51.72;148326.91;5145883;27;20023;-67
2023/03/07 09:38:32;;;;;;;7.22;5.78;;;;;;;3.74;52.64;148254.19;5147019;27;20019;-66
2023/03/07 09:41:16;;;;;;;10.25;6.47;;;;;;;3.16;54.63;148110.09;5145404;27;20038;-65
2023/03/07 09:43:54;;;;;;;10.35;6.53;;;;;;;2.99;53.77;148068.03;5121774;27;20054;-64
2023/03/07 09:47:00;;;;;;;9.13;6.15;;;;;;;2.99;53.92;148068.03;5142377;27;20295;-66
2023/03/07 09:49:31;;;;;;;8.20;5.78;;;;;;;2.77;54.27;148013.25;5126185;27;21065;-65
2023/03/07 09:51:59;;;;;;;12.57;6.35;;;;;;;2.70;55.17;147995.41;5143778;27;20035;-67
2023/03/07 09:54:39;;;;;;;12.55;6.65;;;;;;;2.68;55.22;147990.28;5145508;27;20056;-66
2023/03/07 09:57:12;;;;;;;12.75;6.35;;;;;;;2.46;55.74;147935.53;5145197;27;20102;-67
2023/03/07 09:59:37;;;;;;;11.90;6.43;;;;;;;2.32;55.99;147901.13;5156703;27;20053;-65
2023/03/07 10:02:26;;;;;;;10.38;6.68;;;;;;;2.23;57.10;147879.47;5141964;27;20031;-65
2023/03/07 10:05:25;;;;;;;9.73;6.13;;;;;;;2.32;57.82;147902.38;5144490;27;20039;-66
2023/03/07 10:07:53;;;;;;;10.82;6.45;;;;;;;2.37;56.48;147913.88;5125934;27;20035;-66
2023/03/07 10:10:40;;;;;;;8.80;6.40;;;;;;;1.87;55.90;147791.59;5142058;27;20019;-65
2023/03/07 10:13:31;;;;;;;11.25;6.20;;;;;;;2.39;57.73;147920.25;5143977;27;20037;-66
2023/03/07 10:16:03;;;;;;;8.15;6.25;;;;;;;2.27;55.50;147888.34;5151141;27;20026;-65
2023/03/07 10:18:35;;;;;;;12.50;6.90;;;;;;;2.55;57.71;147958.44;5132417;27;20086;-66
2023/03/07 10:21:18;;;;;;;10.00;6.82;;;;;;;2.61;56.99;147972.44;5129322;27;20090;-66
2023/03/07 10:23:56;;;;;;;12.68;6.50;;;;;;;2.58;54.44;147967.38;5138107;27;20055;-65
2023/03/07 10:26:31;;;;;;;10.98;6.13;;;;;;;2.57;54.56;147963.56;5142663;27;20433;-66
2023/03/07 10:29:00;;;;;;;11.13;5.88;;;;;;;2.19;54.98;147870.53;5144855;27;20039;-65
2023/03/07 10:31:38;;;;;;;9.35;5.88;;;;;;;2.38;56.43;147916.38;5142760;27;20026;-66
2023/03/07 10:34:20;;;;;;;9.43;6.15;;;;;;;2.26;54.74;147885.84;5151884;27;20071;-66
2023/03/07 10:36:49;;;;;;;9.10;5.75;;;;;;;2.40;54.82;147921.50;5148843;27;20026;-65
2023/03/07 10:39:40;;;;;;;9.27;6.18;;;;;;;2.70;55.37;147996.66;5130220;27;20030;-65
2023/03/07 10:42:11;;;;;;;10.25;6.88;;;;;;;2.99;55.28;148066.78;5131262;27;20216;-65
2023/03/07 10:44:37;;;;;;;9.55;5.70;;;;;;;2.73;52.43;148004.31;5146977;27;20023;-64
2023/03/07 10:47:03;;;;;;;10.48;5.70;;;;;;;2.94;53.74;148056.56;5153537;27;20058;-65
2023/03/07 10:49:38;;;;;;;8.75;5.75;;;;;;;2.81;52.15;148023.44;5126988;27;20015;-65
2023/03/07 10:52:16;;;;;;;8.40;5.35;;;;;;;2.11;51.14;147850.19;5151050;27;20041;-65
2023/03/07 10:54:41;;;;;;;9.43;5.72;;;;;;;2.68;53.16;147991.59;5150936;27;21456;-66
2023/03/07 10:57:15;;;;;;;9.30;5.90;;;;;;;2.84;53.06;148029.84;5145469;27;20079;-65
2023/03/07 10:59:43;;;;;;;13.95;6.07;;;;;;;2.49;52.07;147944.41;5157143;27;20361;-65
2023/03/07 11:02:39;;;;;;;9.68;5.75;;;;;;;2.54;51.73;147957.19;5149124;27;20095;-66
2023/03/07 11:05:30;;;;;;;7.63;5.50;;;;;;;2.52;52.35;147952.09;5126455;27;20110;-66
2023/03/07 11:07:56;;;;;;;7.82;5.60;;;;;;;2.67;51.85;147987.78;5149447;27;20083;-65
2023/03/07 11:10:35;;;;;;;9.13;5.70;;;;;;;2.69;51.84;147994.09;5157683;27;20054;-65
2023/03/07 11:13:15;;;;;;;8.10;5.75;;;;;;;2.53;51.60;147954.63;5151571;27;20039;-64
2023/03/07 11:15:41;;;;;;;8.00;5.88;;;;;;;2.43;52.96;147929.16;5116742;27;20023;-65
2023/03/07 11:18:29;;;;;;;8.95;5.93;;;;;;;2.34;52.21;147907.50;5155728;27;20035;-65
2023/03/07 11:20:55;;;;;;;10.38;5.60;;;;;;;2.38;51.71;147916.38;5141041;27;20048;-66
2023/03/07 11:23:25;;;;;;;7.63;5.57;;;;;;;2.31;53.08;147898.56;5157369;27;20038;-65
2023/03/07 11:25:53;;;;;;;9.55;5.40;;;;;;;2.23;50.85;147880.72;5144196;27;20034;-65
2023/03/07 11:28:34;;;;;;;10.23;5.50;;;;;;;2.24;50.19;147882.03;5152082;27;20120;-64
2023/03/07 11:31:12;;;;;;;6.70;4.75;;;;;;;2.16;50.21;147862.91;5128854;27;20050;-65